sensor_id;sensor_type;location;lat;lon;timestamp;P1;durP1;ratioP1;P2;durP2;ratioP2
16928;SDS011;8581;47.334;11.190;2024-02-04T00:01:36;1.37;;;0.80;;
16928;SDS011;8581;47.334;11.190;2024-02-04T00:04:58;1.23;;;0.70;;
16928;SDS011;8581;47.334;11.190;2024-02-04T00:08:19;1.20;;;0.73;;
16928;SDS011;8581;47.334;11.190;2024-02-04T00:11:41;0.90;;;0.70;;
16928;SDS011;8581;47.334;11.190;2024-02-04T00:15:03;1.47;;;0.60;;
16928;SDS011;8581;47.334;11.190;2024-02-04T00:18:25;1.10;;;0.63;;
16928;SDS011;8581;47.334;11.190;2024-02-04T00:21:46;0.70;;;0.70;;
16928;SDS011;8581;47.334;11.190;2024-02-04T00:25:08;1.30;;;0.80;;
16928;SDS011;8581;47.334;11.190;2024-02-04T00:28:30;0.90;;;0.70;;
16928;SDS011;8581;47.334;11.190;2024-02-04T00:31:51;1.73;;;0.70;;
16928;SDS011;8581;47.334;11.190;2024-02-04T00:35:13;2.47;;;0.87;;
16928;SDS011;8581;47.334;11.190;2024-02-04T00:38:35;1.40;;;0.60;;
16928;SDS011;8581;47.334;11.190;2024-02-04T00:41:56;0.63;;;0.60;;
16928;SDS011;8581;47.334;11.190;2024-02-04T00:45:18;4.30;;;0.80;;
16928;SDS011;8581;47.334;11.190;2024-02-04T00:48:39;1.43;;;1.03;;
16928;SDS011;8581;47.334;11.190;2024-02-04T00:52:01;0.80;;;0.80;;
16928;SDS011;8581;47.334;11.190;2024-02-04T00:55:23;0.83;;;0.50;;
16928;SDS011;8581;47.334;11.190;2024-02-04T00:58:44;0.83;;;0.70;;
16928;SDS011;8581;47.334;11.190;2024-02-04T01:02:06;0.70;;;0.70;;
16928;SDS011;8581;47.334;11.190;2024-02-04T01:05:28;1.13;;;0.80;;
16928;SDS011;8581;47.334;11.190;2024-02-04T01:08:49;0.60;;;0.60;;
16928;SDS011;8581;47.334;11.190;2024-02-04T01:12:11;0.67;;;0.60;;
16928;SDS011;8581;47.334;11.190;2024-02-04T01:15:32;0.90;;;0.80;;
16928;SDS011;8581;47.334;11.190;2024-02-04T01:18:54;1.27;;;0.80;;
16928;SDS011;8581;47.334;11.190;2024-02-04T01:22:16;1.00;;;0.87;;
16928;SDS011;8581;47.334;11.190;2024-02-04T01:25:37;1.03;;;0.87;;
16928;SDS011;8581;47.334;11.190;2024-02-04T01:28:59;1.17;;;0.90;;
16928;SDS011;8581;47.334;11.190;2024-02-04T01:32:21;0.93;;;0.70;;
16928;SDS011;8581;47.334;11.190;2024-02-04T01:35:42;1.00;;;0.60;;
16928;SDS011;8581;47.334;11.190;2024-02-04T01:39:04;1.93;;;0.70;;
16928;SDS011;8581;47.334;11.190;2024-02-04T01:42:26;0.70;;;0.70;;
16928;SDS011;8581;47.334;11.190;2024-02-04T01:45:47;0.67;;;0.67;;
16928;SDS011;8581;47.334;11.190;2024-02-04T01:49:09;2.40;;;0.67;;
16928;SDS011;8581;47.334;11.190;2024-02-04T01:52:31;0.93;;;0.63;;
16928;SDS011;8581;47.334;11.190;2024-02-04T01:55:52;1.20;;;0.87;;
16928;SDS011;8581;47.334;11.190;2024-02-04T01:59:14;0.70;;;0.70;;
16928;SDS011;8581;47.334;11.190;2024-02-04T02:02:38;0.80;;;0.80;;
16928;SDS011;8581;47.334;11.190;2024-02-04T02:05:59;1.43;;;0.90;;
16928;SDS011;8581;47.334;11.190;2024-02-04T02:09:20;1.10;;;0.70;;
16928;SDS011;8581;47.334;11.190;2024-02-04T02:12:46;0.70;;;0.50;;
16928;SDS011;8581;47.334;11.190;2024-02-04T02:16:20;1.57;;;0.70;;
16928;SDS011;8581;47.334;11.190;2024-02-04T02:19:52;1.70;;;0.80;;
16928;SDS011;8581;47.334;11.190;2024-02-04T02:23:22;0.93;;;0.80;;
16928;SDS011;8581;47.334;11.190;2024-02-04T02:26:43;1.30;;;0.80;;
16928;SDS011;8581;47.334;11.190;2024-02-04T02:30:05;1.17;;;1.07;;
16928;SDS011;8581;47.334;11.190;2024-02-04T02:33:28;1.70;;;1.20;;
16928;SDS011;8581;47.334;11.190;2024-02-04T02:36:57;1.03;;;0.77;;
16928;SDS011;8581;47.334;11.190;2024-02-04T02:40:21;1.50;;;0.73;;
16928;SDS011;8581;47.334;11.190;2024-02-04T02:43:46;2.37;;;0.80;;
16928;SDS011;8581;47.334;11.190;2024-02-04T02:47:08;1.90;;;1.00;;
16928;SDS011;8581;47.334;11.190;2024-02-04T02:50:29;1.67;;;0.90;;
16928;SDS011;8581;47.334;11.190;2024-02-04T02:53:51;1.73;;;0.97;;
16928;SDS011;8581;47.334;11.190;2024-02-04T02:57:12;2.87;;;1.07;;
16928;SDS011;8581;47.334;11.190;2024-02-04T03:00:34;0.93;;;0.80;;
16928;SDS011;8581;47.334;11.190;2024-02-04T03:03:56;1.50;;;1.07;;
16928;SDS011;8581;47.334;11.190;2024-02-04T03:07:17;2.30;;;0.90;;
16928;SDS011;8581;47.334;11.190;2024-02-04T03:10:39;1.27;;;0.80;;
16928;SDS011;8581;47.334;11.190;2024-02-04T03:14:00;1.57;;;0.80;;
16928;SDS011;8581;47.334;11.190;2024-02-04T03:17:22;1.70;;;0.80;;
16928;SDS011;8581;47.334;11.190;2024-02-04T03:20:44;1.00;;;0.70;;
16928;SDS011;8581;47.334;11.190;2024-02-04T03:24:05;1.87;;;0.67;;
16928;SDS011;8581;47.334;11.190;2024-02-04T03:27:27;1.23;;;0.87;;
16928;SDS011;8581;47.334;11.190;2024-02-04T03:30:48;1.50;;;0.67;;
16928;SDS011;8581;47.334;11.190;2024-02-04T03:34:10;1.03;;;0.80;;
16928;SDS011;8581;47.334;11.190;2024-02-04T03:37:32;3.07;;;0.70;;
16928;SDS011;8581;47.334;11.190;2024-02-04T03:40:54;0.83;;;0.83;;
16928;SDS011;8581;47.334;11.190;2024-02-04T03:44:15;1.23;;;0.73;;
16928;SDS011;8581;47.334;11.190;2024-02-04T03:47:37;1.67;;;0.80;;
16928;SDS011;8581;47.334;11.190;2024-02-04T03:50:58;1.33;;;0.70;;
16928;SDS011;8581;47.334;11.190;2024-02-04T03:54:20;2.17;;;0.80;;
16928;SDS011;8581;47.334;11.190;2024-02-04T03:57:41;1.50;;;0.70;;
16928;SDS011;8581;47.334;11.190;2024-02-04T04:01:03;0.60;;;0.50;;
16928;SDS011;8581;47.334;11.190;2024-02-04T04:04:25;1.10;;;0.80;;
16928;SDS011;8581;47.334;11.190;2024-02-04T04:07:47;0.80;;;0.80;;
16928;SDS011;8581;47.334;11.190;2024-02-04T04:11:08;2.30;;;0.97;;
16928;SDS011;8581;47.334;11.190;2024-02-04T04:14:30;2.90;;;1.10;;
16928;SDS011;8581;47.334;11.190;2024-02-04T04:17:51;3.27;;;0.90;;
16928;SDS011;8581;47.334;11.190;2024-02-04T04:21:13;2.80;;;1.40;;
16928;SDS011;8581;47.334;11.190;2024-02-04T04:24:35;1.80;;;1.43;;
16928;SDS011;8581;47.334;11.190;2024-02-04T04:27:56;1.73;;;1.10;;
16928;SDS011;8581;47.334;11.190;2024-02-04T04:31:18;2.00;;;1.40;;
16928;SDS011;8581;47.334;11.190;2024-02-04T04:34:40;2.07;;;1.23;;
16928;SDS011;8581;47.334;11.190;2024-02-04T04:38:01;1.57;;;1.20;;
16928;SDS011;8581;47.334;11.190;2024-02-04T04:41:23;3.17;;;1.30;;
16928;SDS011;8581;47.334;11.190;2024-02-04T04:44:45;0.80;;;0.70;;
16928;SDS011;8581;47.334;11.190;2024-02-04T04:48:07;1.13;;;0.77;;
16928;SDS011;8581;47.334;11.190;2024-02-04T04:51:28;0.77;;;0.70;;
16928;SDS011;8581;47.334;11.190;2024-02-04T04:54:50;0.90;;;0.60;;
16928;SDS011;8581;47.334;11.190;2024-02-04T04:58:12;1.93;;;0.70;;
16928;SDS011;8581;47.334;11.190;2024-02-04T05:01:33;0.70;;;0.50;;
16928;SDS011;8581;47.334;11.190;2024-02-04T05:04:55;2.10;;;0.50;;
16928;SDS011;8581;47.334;11.190;2024-02-04T05:08:17;2.03;;;0.73;;
16928;SDS011;8581;47.334;11.190;2024-02-04T05:11:38;0.60;;;0.50;;
16928;SDS011;8581;47.334;11.190;2024-02-04T05:15:00;1.40;;;0.60;;
16928;SDS011;8581;47.334;11.190;2024-02-04T05:18:22;1.67;;;0.60;;
16928;SDS011;8581;47.334;11.190;2024-02-04T05:21:43;0.60;;;0.50;;
16928;SDS011;8581;47.334;11.190;2024-02-04T05:25:05;2.43;;;0.83;;
16928;SDS011;8581;47.334;11.190;2024-02-04T05:28:28;0.60;;;0.60;;
16928;SDS011;8581;47.334;11.190;2024-02-04T05:31:49;1.47;;;0.70;;
16928;SDS011;8581;47.334;11.190;2024-02-04T05:35:11;2.33;;;1.10;;
16928;SDS011;8581;47.334;11.190;2024-02-04T05:38:33;1.43;;;0.70;;
16928;SDS011;8581;47.334;11.190;2024-02-04T05:41:54;1.73;;;0.80;;
16928;SDS011;8581;47.334;11.190;2024-02-04T05:45:16;1.30;;;0.90;;
16928;SDS011;8581;47.334;11.190;2024-02-04T05:48:37;1.10;;;0.87;;
16928;SDS011;8581;47.334;11.190;2024-02-04T05:51:59;2.10;;;1.13;;
16928;SDS011;8581;47.334;11.190;2024-02-04T05:55:21;3.17;;;1.20;;
16928;SDS011;8581;47.334;11.190;2024-02-04T05:58:43;1.10;;;0.77;;
16928;SDS011;8581;47.334;11.190;2024-02-04T06:02:04;1.37;;;0.87;;
16928;SDS011;8581;47.334;11.190;2024-02-04T06:05:26;2.20;;;0.80;;
16928;SDS011;8581;47.334;11.190;2024-02-04T06:08:48;2.77;;;0.90;;
16928;SDS011;8581;47.334;11.190;2024-02-04T06:12:09;1.90;;;1.00;;
16928;SDS011;8581;47.334;11.190;2024-02-04T06:15:31;1.37;;;1.10;;
16928;SDS011;8581;47.334;11.190;2024-02-04T06:18:53;2.70;;;1.00;;
16928;SDS011;8581;47.334;11.190;2024-02-04T06:22:15;1.33;;;0.70;;
16928;SDS011;8581;47.334;11.190;2024-02-04T06:25:37;2.10;;;0.90;;
16928;SDS011;8581;47.334;11.190;2024-02-04T06:29:05;1.63;;;0.63;;
16928;SDS011;8581;47.334;11.190;2024-02-04T06:32:26;3.60;;;1.27;;
16928;SDS011;8581;47.334;11.190;2024-02-04T06:35:48;2.27;;;1.10;;
16928;SDS011;8581;47.334;11.190;2024-02-04T06:39:09;2.17;;;0.90;;
16928;SDS011;8581;47.334;11.190;2024-02-04T06:42:32;2.50;;;1.23;;
16928;SDS011;8581;47.334;11.190;2024-02-04T06:45:54;1.43;;;1.13;;
16928;SDS011;8581;47.334;11.190;2024-02-04T06:49:15;3.27;;;1.83;;
16928;SDS011;8581;47.334;11.190;2024-02-04T06:52:37;2.40;;;1.30;;
16928;SDS011;8581;47.334;11.190;2024-02-04T06:55:58;4.20;;;1.50;;
16928;SDS011;8581;47.334;11.190;2024-02-04T06:59:20;2.57;;;1.33;;
16928;SDS011;8581;47.334;11.190;2024-02-04T07:02:42;3.43;;;1.30;;
16928;SDS011;8581;47.334;11.190;2024-02-04T07:06:04;3.53;;;1.43;;
16928;SDS011;8581;47.334;11.190;2024-02-04T07:09:26;2.73;;;1.53;;
16928;SDS011;8581;47.334;11.190;2024-02-04T07:12:48;1.87;;;1.07;;
16928;SDS011;8581;47.334;11.190;2024-02-04T07:16:09;3.47;;;1.23;;
16928;SDS011;8581;47.334;11.190;2024-02-04T07:19:31;3.17;;;1.57;;
16928;SDS011;8581;47.334;11.190;2024-02-04T07:22:53;1.80;;;1.20;;
16928;SDS011;8581;47.334;11.190;2024-02-04T07:26:14;7.20;;;5.43;;
16928;SDS011;8581;47.334;11.190;2024-02-04T07:29:36;7.03;;;6.30;;
16928;SDS011;8581;47.334;11.190;2024-02-04T07:32:57;4.57;;;2.70;;
16928;SDS011;8581;47.334;11.190;2024-02-04T07:36:19;6.63;;;4.83;;
16928;SDS011;8581;47.334;11.190;2024-02-04T07:39:41;10.93;;;9.23;;
16928;SDS011;8581;47.334;11.190;2024-02-04T07:43:03;6.10;;;4.60;;
16928;SDS011;8581;47.334;11.190;2024-02-04T07:46:24;9.00;;;8.17;;
16928;SDS011;8581;47.334;11.190;2024-02-04T07:49:47;4.47;;;3.20;;
16928;SDS011;8581;47.334;11.190;2024-02-04T07:53:08;2.07;;;1.30;;
16928;SDS011;8581;47.334;11.190;2024-02-04T07:56:29;2.77;;;1.47;;
16928;SDS011;8581;47.334;11.190;2024-02-04T07:59:51;2.10;;;1.10;;
16928;SDS011;8581;47.334;11.190;2024-02-04T08:03:13;3.27;;;2.20;;
16928;SDS011;8581;47.334;11.190;2024-02-04T08:06:34;5.93;;;3.90;;
16928;SDS011;8581;47.334;11.190;2024-02-04T08:09:56;1.63;;;0.90;;
16928;SDS011;8581;47.334;11.190;2024-02-04T08:13:17;5.43;;;2.30;;
16928;SDS011;8581;47.334;11.190;2024-02-04T08:16:39;3.70;;;2.03;;
16928;SDS011;8581;47.334;11.190;2024-02-04T08:20:01;3.00;;;1.87;;
16928;SDS011;8581;47.334;11.190;2024-02-04T08:23:23;2.77;;;1.63;;
16928;SDS011;8581;47.334;11.190;2024-02-04T08:26:44;2.87;;;1.80;;
16928;SDS011;8581;47.334;11.190;2024-02-04T08:30:06;3.17;;;1.60;;
16928;SDS011;8581;47.334;11.190;2024-02-04T08:33:28;3.23;;;1.50;;
16928;SDS011;8581;47.334;11.190;2024-02-04T08:36:50;3.37;;;1.80;;
16928;SDS011;8581;47.334;11.190;2024-02-04T08:40:13;4.70;;;2.10;;
16928;SDS011;8581;47.334;11.190;2024-02-04T08:43:33;2.30;;;1.07;;
16928;SDS011;8581;47.334;11.190;2024-02-04T08:46:55;0.63;;;0.40;;
16928;SDS011;8581;47.334;11.190;2024-02-04T08:50:17;2.77;;;1.10;;
16928;SDS011;8581;47.334;11.190;2024-02-04T08:53:38;2.20;;;1.10;;
16928;SDS011;8581;47.334;11.190;2024-02-04T08:57:00;0.90;;;0.40;;
16928;SDS011;8581;47.334;11.190;2024-02-04T09:00:21;0.53;;;0.30;;
16928;SDS011;8581;47.334;11.190;2024-02-04T09:03:43;2.53;;;0.43;;
16928;SDS011;8581;47.334;11.190;2024-02-04T09:07:05;1.17;;;0.60;;
16928;SDS011;8581;47.334;11.190;2024-02-04T09:10:26;0.43;;;0.37;;
16928;SDS011;8581;47.334;11.190;2024-02-04T09:13:48;2.50;;;0.50;;
16928;SDS011;8581;47.334;11.190;2024-02-04T09:17:09;1.03;;;0.43;;
16928;SDS011;8581;47.334;11.190;2024-02-04T09:20:31;0.70;;;0.23;;
16928;SDS011;8581;47.334;11.190;2024-02-04T09:23:53;1.80;;;0.40;;
16928;SDS011;8581;47.334;11.190;2024-02-04T09:27:14;2.60;;;0.50;;
16928;SDS011;8581;47.334;11.190;2024-02-04T09:30:36;1.03;;;0.50;;
16928;SDS011;8581;47.334;11.190;2024-02-04T09:33:58;0.80;;;0.30;;
16928;SDS011;8581;47.334;11.190;2024-02-04T09:37:19;3.00;;;0.60;;
16928;SDS011;8581;47.334;11.190;2024-02-04T09:40:41;1.03;;;0.40;;
16928;SDS011;8581;47.334;11.190;2024-02-04T09:44:03;0.40;;;0.40;;
16928;SDS011;8581;47.334;11.190;2024-02-04T09:47:25;2.97;;;0.40;;
16928;SDS011;8581;47.334;11.190;2024-02-04T09:50:46;1.53;;;0.37;;
16928;SDS011;8581;47.334;11.190;2024-02-04T09:54:09;1.40;;;0.63;;
16928;SDS011;8581;47.334;11.190;2024-02-04T09:57:30;1.43;;;0.60;;
16928;SDS011;8581;47.334;11.190;2024-02-04T10:00:51;1.00;;;0.50;;
16928;SDS011;8581;47.334;11.190;2024-02-04T10:04:13;0.80;;;0.77;;
16928;SDS011;8581;47.334;11.190;2024-02-04T10:07:35;1.33;;;0.30;;
16928;SDS011;8581;47.334;11.190;2024-02-04T10:10:56;0.70;;;0.40;;
16928;SDS011;8581;47.334;11.190;2024-02-04T10:14:18;0.63;;;0.43;;
16928;SDS011;8581;47.334;11.190;2024-02-04T10:17:42;0.40;;;0.30;;
16928;SDS011;8581;47.334;11.190;2024-02-04T10:21:03;0.90;;;0.57;;
16928;SDS011;8581;47.334;11.190;2024-02-04T10:24:26;0.33;;;0.33;;
16928;SDS011;8581;47.334;11.190;2024-02-04T10:27:47;0.90;;;0.40;;
16928;SDS011;8581;47.334;11.190;2024-02-04T10:31:08;0.93;;;0.30;;
16928;SDS011;8581;47.334;11.190;2024-02-04T10:34:30;2.53;;;0.33;;
16928;SDS011;8581;47.334;11.190;2024-02-04T10:37:52;2.07;;;0.53;;
16928;SDS011;8581;47.334;11.190;2024-02-04T10:41:15;2.20;;;0.30;;
16928;SDS011;8581;47.334;11.190;2024-02-04T10:44:36;0.47;;;0.40;;
16928;SDS011;8581;47.334;11.190;2024-02-04T10:47:58;0.50;;;0.30;;
16928;SDS011;8581;47.334;11.190;2024-02-04T10:51:19;1.33;;;0.53;;
16928;SDS011;8581;47.334;11.190;2024-02-04T10:54:41;2.05;;;0.42;;
16928;SDS011;8581;47.334;11.190;2024-02-04T10:58:03;0.77;;;0.50;;
16928;SDS011;8581;47.334;11.190;2024-02-04T11:01:25;1.07;;;0.40;;
16928;SDS011;8581;47.334;11.190;2024-02-04T11:04:48;1.70;;;0.33;;
16928;SDS011;8581;47.334;11.190;2024-02-04T11:08:08;0.20;;;0.20;;
16928;SDS011;8581;47.334;11.190;2024-02-04T11:11:30;0.90;;;0.40;;
16928;SDS011;8581;47.334;11.190;2024-02-04T11:14:53;0.28;;;0.28;;
16928;SDS011;8581;47.334;11.190;2024-02-04T11:18:22;4.05;;;0.40;;
16928;SDS011;8581;47.334;11.190;2024-02-04T11:25:31;1.95;;;0.30;;
16928;SDS011;8581;47.334;11.190;2024-02-04T11:28:48;0.20;;;0.20;;
16928;SDS011;8581;47.334;11.190;2024-02-04T11:32:09;1.62;;;0.37;;
16928;SDS011;8581;47.334;11.190;2024-02-04T11:35:32;1.72;;;0.62;;
16928;SDS011;8581;47.334;11.190;2024-02-04T11:38:53;1.12;;;0.45;;
16928;SDS011;8581;47.334;11.190;2024-02-04T11:42:15;4.33;;;1.25;;
16928;SDS011;8581;47.334;11.190;2024-02-04T11:45:37;0.53;;;0.50;;
16928;SDS011;8581;47.334;11.190;2024-02-04T11:48:59;0.68;;;0.50;;
16928;SDS011;8581;47.334;11.190;2024-02-04T11:52:21;0.53;;;0.40;;
16928;SDS011;8581;47.334;11.190;2024-02-04T11:55:42;0.33;;;0.30;;
16928;SDS011;8581;47.334;11.190;2024-02-04T11:59:04;1.12;;;0.30;;
16928;SDS011;8581;47.334;11.190;2024-02-04T12:02:26;0.95;;;0.50;;
16928;SDS011;8581;47.334;11.190;2024-02-04T12:05:47;0.37;;;0.35;;
16928;SDS011;8581;47.334;11.190;2024-02-04T12:09:09;2.77;;;0.30;;
16928;SDS011;8581;47.334;11.190;2024-02-04T12:12:31;0.40;;;0.37;;
16928;SDS011;8581;47.334;11.190;2024-02-04T12:15:52;0.45;;;0.45;;
16928;SDS011;8581;47.334;11.190;2024-02-04T12:19:14;0.53;;;0.30;;
16928;SDS011;8581;47.334;11.190;2024-02-04T12:22:36;0.75;;;0.65;;
16928;SDS011;8581;47.334;11.190;2024-02-04T12:25:57;0.88;;;0.40;;
16928;SDS011;8581;47.334;11.190;2024-02-04T12:29:19;0.33;;;0.30;;
16928;SDS011;8581;47.334;11.190;2024-02-04T12:32:41;0.90;;;0.30;;
16928;SDS011;8581;47.334;11.190;2024-02-04T12:36:02;0.78;;;0.60;;
16928;SDS011;8581;47.334;11.190;2024-02-04T12:39:24;0.68;;;0.45;;
16928;SDS011;8581;47.334;11.190;2024-02-04T12:42:51;1.25;;;0.80;;
16928;SDS011;8581;47.334;11.190;2024-02-04T12:46:08;2.25;;;0.93;;
16928;SDS011;8581;47.334;11.190;2024-02-04T12:49:29;0.33;;;0.30;;
16928;SDS011;8581;47.334;11.190;2024-02-04T12:56:23;0.30;;;0.30;;
16928;SDS011;8581;47.334;11.190;2024-02-04T12:59:45;0.20;;;0.20;;
16928;SDS011;8581;47.334;11.190;2024-02-04T13:03:07;0.90;;;0.40;;
16928;SDS011;8581;47.334;11.190;2024-02-04T13:06:30;0.90;;;0.30;;
16928;SDS011;8581;47.334;11.190;2024-02-04T13:09:57;1.37;;;0.40;;
16928;SDS011;8581;47.334;11.190;2024-02-04T13:13:20;1.00;;;0.37;;
16928;SDS011;8581;47.334;11.190;2024-02-04T13:16:42;2.10;;;0.50;;
16928;SDS011;8581;47.334;11.190;2024-02-04T13:20:04;0.33;;;0.30;;
16928;SDS011;8581;47.334;11.190;2024-02-04T13:23:26;0.72;;;0.33;;
16928;SDS011;8581;47.334;11.190;2024-02-04T13:26:48;1.72;;;0.50;;
16928;SDS011;8581;47.334;11.190;2024-02-04T13:30:09;1.75;;;0.30;;
16928;SDS011;8581;47.334;11.190;2024-02-04T13:33:31;0.35;;;0.23;;
16928;SDS011;8581;47.334;11.190;2024-02-04T13:36:53;0.28;;;0.20;;
16928;SDS011;8581;47.334;11.190;2024-02-04T13:40:15;0.33;;;0.20;;
16928;SDS011;8581;47.334;11.190;2024-02-04T13:43:36;0.50;;;0.40;;
16928;SDS011;8581;47.334;11.190;2024-02-04T13:46:58;0.25;;;0.20;;
16928;SDS011;8581;47.334;11.190;2024-02-04T13:50:19;0.75;;;0.33;;
16928;SDS011;8581;47.334;11.190;2024-02-04T13:53:41;0.90;;;0.37;;
16928;SDS011;8581;47.334;11.190;2024-02-04T13:57:03;1.65;;;0.35;;
16928;SDS011;8581;47.334;11.190;2024-02-04T14:00:25;0.68;;;0.40;;
16928;SDS011;8581;47.334;11.190;2024-02-04T14:03:47;0.60;;;0.30;;
16928;SDS011;8581;47.334;11.190;2024-02-04T14:07:08;2.27;;;0.40;;
16928;SDS011;8581;47.334;11.190;2024-02-04T14:10:30;3.52;;;0.72;;
16928;SDS011;8581;47.334;11.190;2024-02-04T14:13:52;4.17;;;0.80;;
16928;SDS011;8581;47.334;11.190;2024-02-04T14:17:13;0.30;;;0.20;;
16928;SDS011;8581;47.334;11.190;2024-02-04T14:20:35;1.45;;;0.40;;
16928;SDS011;8581;47.334;11.190;2024-02-04T14:23:56;0.50;;;0.40;;
16928;SDS011;8581;47.334;11.190;2024-02-04T14:27:18;0.37;;;0.30;;
16928;SDS011;8581;47.334;11.190;2024-02-04T14:30:40;5.50;;;0.70;;
16928;SDS011;8581;47.334;11.190;2024-02-04T14:34:01;2.37;;;0.60;;
16928;SDS011;8581;47.334;11.190;2024-02-04T14:37:23;0.70;;;0.50;;
16928;SDS011;8581;47.334;11.190;2024-02-04T14:40:45;2.27;;;0.70;;
16928;SDS011;8581;47.334;11.190;2024-02-04T14:44:06;0.50;;;0.17;;
16928;SDS011;8581;47.334;11.190;2024-02-04T14:47:28;3.55;;;0.68;;
16928;SDS011;8581;47.334;11.190;2024-02-04T14:50:49;1.72;;;0.30;;
16928;SDS011;8581;47.334;11.190;2024-02-04T14:54:11;0.40;;;0.30;;
16928;SDS011;8581;47.334;11.190;2024-02-04T14:57:33;0.50;;;0.30;;
16928;SDS011;8581;47.334;11.190;2024-02-04T15:00:54;1.37;;;0.30;;
16928;SDS011;8581;47.334;11.190;2024-02-04T15:04:16;0.68;;;0.57;;
16928;SDS011;8581;47.334;11.190;2024-02-04T15:07:38;0.57;;;0.30;;
16928;SDS011;8581;47.334;11.190;2024-02-04T15:10:59;2.08;;;0.37;;
16928;SDS011;8581;47.334;11.190;2024-02-04T15:14:21;2.85;;;0.40;;
16928;SDS011;8581;47.334;11.190;2024-02-04T15:17:43;0.65;;;0.30;;
16928;SDS011;8581;47.334;11.190;2024-02-04T15:21:06;0.65;;;0.50;;
16928;SDS011;8581;47.334;11.190;2024-02-04T15:24:29;0.98;;;0.40;;
16928;SDS011;8581;47.334;11.190;2024-02-04T15:27:51;0.35;;;0.30;;
16928;SDS011;8581;47.334;11.190;2024-02-04T15:31:13;2.25;;;0.50;;
16928;SDS011;8581;47.334;11.190;2024-02-04T15:34:36;0.65;;;0.20;;
16928;SDS011;8581;47.334;11.190;2024-02-04T15:37:58;0.53;;;0.40;;
16928;SDS011;8581;47.334;11.190;2024-02-04T15:41:19;1.27;;;0.20;;
16928;SDS011;8581;47.334;11.190;2024-02-04T15:44:41;1.03;;;0.40;;
16928;SDS011;8581;47.334;11.190;2024-02-04T15:48:03;0.40;;;0.40;;
16928;SDS011;8581;47.334;11.190;2024-02-04T15:51:26;0.40;;;0.40;;
16928;SDS011;8581;47.334;11.190;2024-02-04T15:54:49;1.57;;;0.30;;
16928;SDS011;8581;47.334;11.190;2024-02-04T15:58:12;0.70;;;0.50;;
16928;SDS011;8581;47.334;11.190;2024-02-04T16:01:34;2.30;;;1.50;;
16928;SDS011;8581;47.334;11.190;2024-02-04T16:04:56;0.77;;;0.60;;
16928;SDS011;8581;47.334;11.190;2024-02-04T16:08:18;1.77;;;0.77;;
16928;SDS011;8581;47.334;11.190;2024-02-04T16:11:45;2.93;;;0.40;;
16928;SDS011;8581;47.334;11.190;2024-02-04T16:15:05;0.57;;;0.30;;
16928;SDS011;8581;47.334;11.190;2024-02-04T16:18:28;0.87;;;0.50;;
16928;SDS011;8581;47.334;11.190;2024-02-04T16:21:50;2.77;;;0.50;;
16928;SDS011;8581;47.334;11.190;2024-02-04T16:25:11;2.07;;;0.70;;
16928;SDS011;8581;47.334;11.190;2024-02-04T16:28:33;0.30;;;0.30;;
16928;SDS011;8581;47.334;11.190;2024-02-04T16:31:55;1.37;;;0.90;;
16928;SDS011;8581;47.334;11.190;2024-02-04T16:35:16;1.00;;;0.50;;
16928;SDS011;8581;47.334;11.190;2024-02-04T16:38:38;1.77;;;0.70;;
16928;SDS011;8581;47.334;11.190;2024-02-04T16:42:00;5.23;;;0.80;;
16928;SDS011;8581;47.334;11.190;2024-02-04T16:45:21;1.57;;;0.47;;
16928;SDS011;8581;47.334;11.190;2024-02-04T16:48:43;2.83;;;0.70;;
16928;SDS011;8581;47.334;11.190;2024-02-04T16:52:05;3.90;;;0.73;;
16928;SDS011;8581;47.334;11.190;2024-02-04T16:55:26;1.67;;;0.83;;
16928;SDS011;8581;47.334;11.190;2024-02-04T16:58:49;0.53;;;0.43;;
16928;SDS011;8581;47.334;11.190;2024-02-04T17:02:10;2.00;;;0.90;;
16928;SDS011;8581;47.334;11.190;2024-02-04T17:05:32;1.25;;;1.00;;
16928;SDS011;8581;47.334;11.190;2024-02-04T17:08:54;1.30;;;0.60;;
16928;SDS011;8581;47.334;11.190;2024-02-04T17:12:16;0.60;;;0.50;;
16928;SDS011;8581;47.334;11.190;2024-02-04T17:15:39;1.13;;;0.60;;
16928;SDS011;8581;47.334;11.190;2024-02-04T17:19:09;5.53;;;1.53;;
16928;SDS011;8581;47.334;11.190;2024-02-04T17:22:31;1.17;;;0.57;;
16928;SDS011;8581;47.334;11.190;2024-02-04T17:25:59;0.43;;;0.43;;
16928;SDS011;8581;47.334;11.190;2024-02-04T17:29:14;9.10;;;1.40;;
16928;SDS011;8581;47.334;11.190;2024-02-04T17:32:37;2.80;;;1.00;;
16928;SDS011;8581;47.334;11.190;2024-02-04T17:35:59;0.97;;;0.57;;
16928;SDS011;8581;47.334;11.190;2024-02-04T17:39:20;1.70;;;0.80;;
16928;SDS011;8581;47.334;11.190;2024-02-04T17:42:48;0.40;;;0.40;;
16928;SDS011;8581;47.334;11.190;2024-02-04T17:46:10;0.97;;;0.40;;
16928;SDS011;8581;47.334;11.190;2024-02-04T17:49:31;0.63;;;0.40;;
16928;SDS011;8581;47.334;11.190;2024-02-04T17:52:53;1.00;;;0.37;;
16928;SDS011;8581;47.334;11.190;2024-02-04T17:56:15;0.80;;;0.47;;
16928;SDS011;8581;47.334;11.190;2024-02-04T17:59:37;3.17;;;0.80;;
16928;SDS011;8581;47.334;11.190;2024-02-04T18:02:59;1.67;;;0.70;;
16928;SDS011;8581;47.334;11.190;2024-02-04T18:06:20;2.87;;;0.60;;
16928;SDS011;8581;47.334;11.190;2024-02-04T18:09:42;2.43;;;0.60;;
16928;SDS011;8581;47.334;11.190;2024-02-04T18:13:03;0.50;;;0.50;;
16928;SDS011;8581;47.334;11.190;2024-02-04T18:16:25;1.57;;;1.00;;
16928;SDS011;8581;47.334;11.190;2024-02-04T18:19:47;2.07;;;0.80;;
16928;SDS011;8581;47.334;11.190;2024-02-04T18:23:08;1.00;;;0.87;;
16928;SDS011;8581;47.334;11.190;2024-02-04T18:26:32;2.67;;;0.70;;
16928;SDS011;8581;47.334;11.190;2024-02-04T18:29:56;1.47;;;0.60;;
16928;SDS011;8581;47.334;11.190;2024-02-04T18:33:18;0.97;;;0.43;;
16928;SDS011;8581;47.334;11.190;2024-02-04T18:36:40;1.23;;;0.50;;
16928;SDS011;8581;47.334;11.190;2024-02-04T18:40:02;0.60;;;0.40;;
16928;SDS011;8581;47.334;11.190;2024-02-04T18:43:24;1.97;;;0.63;;
16928;SDS011;8581;47.334;11.190;2024-02-04T18:46:46;0.87;;;0.60;;
16928;SDS011;8581;47.334;11.190;2024-02-04T18:50:07;0.80;;;0.80;;
16928;SDS011;8581;47.334;11.190;2024-02-04T18:53:30;2.37;;;1.13;;
16928;SDS011;8581;47.334;11.190;2024-02-04T18:56:52;6.27;;;1.90;;
16928;SDS011;8581;47.334;11.190;2024-02-04T19:00:14;3.17;;;1.30;;
16928;SDS011;8581;47.334;11.190;2024-02-04T19:03:36;7.17;;;1.40;;
16928;SDS011;8581;47.334;11.190;2024-02-04T19:06:58;1.40;;;1.10;;
16928;SDS011;8581;47.334;11.190;2024-02-04T19:10:20;2.93;;;1.00;;
16928;SDS011;8581;47.334;11.190;2024-02-04T19:13:42;1.13;;;0.67;;
16928;SDS011;8581;47.334;11.190;2024-02-04T19:17:03;2.97;;;0.80;;
16928;SDS011;8581;47.334;11.190;2024-02-04T19:20:25;1.00;;;0.60;;
16928;SDS011;8581;47.334;11.190;2024-02-04T19:23:48;2.43;;;0.50;;
16928;SDS011;8581;47.334;11.190;2024-02-04T19:27:08;2.47;;;0.77;;
16928;SDS011;8581;47.334;11.190;2024-02-04T19:30:30;2.40;;;0.60;;
16928;SDS011;8581;47.334;11.190;2024-02-04T19:33:51;1.13;;;0.60;;
16928;SDS011;8581;47.334;11.190;2024-02-04T19:37:13;6.57;;;1.53;;
16928;SDS011;8581;47.334;11.190;2024-02-04T19:40:35;2.37;;;0.90;;
16928;SDS011;8581;47.334;11.190;2024-02-04T19:43:56;3.33;;;1.10;;
16928;SDS011;8581;47.334;11.190;2024-02-04T19:47:18;1.47;;;0.90;;
16928;SDS011;8581;47.334;11.190;2024-02-04T19:50:39;6.43;;;1.63;;
16928;SDS011;8581;47.334;11.190;2024-02-04T19:54:01;2.60;;;0.77;;
16928;SDS011;8581;47.334;11.190;2024-02-04T19:57:23;1.17;;;0.73;;
16928;SDS011;8581;47.334;11.190;2024-02-04T20:00:44;1.43;;;0.83;;
16928;SDS011;8581;47.334;11.190;2024-02-04T20:04:06;1.60;;;1.30;;
16928;SDS011;8581;47.334;11.190;2024-02-04T20:07:28;4.13;;;1.40;;
16928;SDS011;8581;47.334;11.190;2024-02-04T20:10:49;2.10;;;1.20;;
16928;SDS011;8581;47.334;11.190;2024-02-04T20:14:18;1.60;;;1.30;;
16928;SDS011;8581;47.334;11.190;2024-02-04T20:17:40;4.77;;;1.60;;
16928;SDS011;8581;47.334;11.190;2024-02-04T20:21:01;2.80;;;1.57;;
16928;SDS011;8581;47.334;11.190;2024-02-04T20:24:23;2.60;;;1.83;;